createdAt,value
2022-08-11T00:01:20.040Z,52.10
2022-08-11T00:04:06.227Z,51.80
2022-08-11T00:06:52.879Z,52.00
2022-08-11T00:09:40.170Z,51.70
2022-08-11T00:12:26.046Z,52.30
2022-08-11T00:15:12.428Z,52.30
2022-08-11T00:18:00.498Z,52.60
2022-08-11T00:20:45.991Z,52.70
2022-08-11T00:23:31.362Z,53.00
2022-08-11T00:26:17.595Z,52.80
2022-08-11T00:29:11.057Z,53.10
2022-08-11T00:31:58.315Z,52.90
2022-08-11T00:34:46.957Z,53.60
2022-08-11T00:37:32.945Z,53.20
2022-08-11T00:40:32.550Z,53.30
2022-08-11T00:43:24.320Z,53.50
2022-08-11T00:46:34.293Z,53.50
2022-08-11T00:49:27.644Z,54.30
2022-08-11T00:52:33.597Z,54.10
2022-08-11T00:56:01.296Z,54.20
2022-08-11T00:59:35.604Z,54.20
2022-08-11T01:02:27.044Z,54.60
2022-08-11T01:05:37.907Z,54.70
2022-08-11T01:09:00.809Z,54.80
2022-08-11T01:11:56.483Z,54.60
2022-08-11T01:15:20.503Z,55.20
2022-08-11T01:18:53.833Z,55.10
2022-08-11T01:21:41.655Z,55.20
2022-08-11T01:24:47.566Z,55.50
2022-08-11T01:27:38.612Z,55.30
2022-08-11T01:31:01.347Z,55.60
2022-08-11T01:34:21.715Z,55.50
2022-08-11T01:37:49.443Z,55.40
2022-08-11T01:41:10.949Z,55.50
2022-08-11T01:44:40.798Z,55.50
2022-08-11T01:47:52.535Z,55.90
2022-08-11T01:50:57.306Z,56.60
2022-08-11T01:53:59.435Z,56.40
2022-08-11T01:57:15.656Z,56.40
2022-08-11T02:00:09.459Z,56.70
2022-08-11T02:03:23.436Z,57.00
2022-08-11T02:06:56.097Z,56.40
2022-08-11T02:10:36.378Z,56.80
2022-08-11T02:13:46.991Z,57.00
2022-08-11T02:17:19.247Z,57.30
2022-08-11T02:20:55.655Z,57.30
2022-08-11T02:24:03.742Z,57.40
2022-08-11T02:27:07.746Z,57.40
2022-08-11T02:30:09.967Z,57.30
2022-08-11T02:33:24.729Z,57.10
2022-08-11T02:36:24.772Z,57.40
2022-08-11T02:39:13.054Z,57.70
2022-08-11T02:42:32.695Z,57.80
2022-08-11T02:45:27.353Z,57.90
2022-08-11T02:48:51.610Z,58.10
2022-08-11T02:51:42.907Z,58.10
2022-08-11T02:54:37.962Z,58.80
2022-08-11T02:57:41.588Z,58.50
2022-08-11T03:00:29.575Z,58.80
2022-08-11T03:03:25.655Z,58.80
2022-08-11T03:06:24.337Z,58.60
2022-08-11T03:09:31.544Z,58.80
2022-08-11T03:12:44.538Z,58.70
2022-08-11T03:15:56.773Z,59.00
2022-08-11T03:19:14.571Z,59.10
2022-08-11T03:22:19.220Z,59.30
2022-08-11T03:25:19.926Z,59.20
2022-08-11T03:28:24.524Z,59.50
2022-08-11T03:31:28.024Z,59.30
2022-08-11T03:34:21.850Z,59.60
2022-08-11T03:37:51.697Z,59.80
2022-08-11T03:42:02.672Z,59.60
2022-08-11T03:44:44.030Z,59.50
2022-08-11T03:47:55.895Z,59.70
2022-08-11T03:50:54.825Z,60.00
2022-08-11T03:54:13.171Z,60.00
2022-08-11T03:57:36.516Z,60.40
2022-08-11T04:00:36.376Z,60.30
2022-08-11T04:03:31.051Z,60.60
2022-08-11T04:06:38.102Z,60.50
2022-08-11T04:09:48.636Z,60.80
2022-08-11T04:12:52.970Z,60.90
2022-08-11T04:16:12.623Z,61.00
2022-08-11T04:19:35.010Z,61.00
2022-08-11T04:22:48.822Z,61.10
2022-08-11T04:26:16.197Z,61.00
2022-08-11T04:30:02.944Z,61.10
2022-08-11T04:32:56.415Z,61.40
2022-08-11T04:36:15.945Z,61.50
2022-08-11T04:39:33.995Z,61.30
2022-08-11T04:43:21.988Z,61.70
2022-08-11T04:46:25.959Z,61.80
2022-08-11T04:50:10.587Z,62.20
2022-08-11T04:53:30.959Z,62.10
2022-08-11T04:56:44.809Z,62.20
2022-08-11T05:00:08.307Z,62.90
2022-08-11T05:03:22.104Z,62.60
2022-08-11T05:06:54.943Z,63.70
2022-08-11T05:09:39.995Z,63.20
2022-08-11T05:12:42.342Z,63.60
2022-08-11T05:15:55.686Z,63.10
2022-08-11T05:19:09.725Z,63.30
2022-08-11T05:22:16.202Z,63.90
2022-08-11T05:26:45.430Z,63.50
2022-08-11T05:29:00.407Z,63.80
2022-08-11T05:32:23.910Z,63.60
2022-08-11T05:35:11.062Z,62.60
2022-08-11T05:38:43.915Z,62.80
2022-08-11T05:41:49.903Z,63.10
2022-08-11T05:44:56.648Z,62.80
2022-08-11T05:48:01.466Z,62.80
2022-08-11T05:51:24.220Z,62.70
2022-08-11T05:54:35.499Z,62.60
2022-08-11T05:57:45.463Z,62.80
2022-08-11T06:00:45.662Z,62.90
2022-08-11T06:03:58.222Z,62.50
2022-08-11T06:06:55.031Z,62.30
2022-08-11T06:10:00.264Z,62.60
2022-08-11T06:12:46.643Z,62.70
2022-08-11T06:15:34.690Z,62.60
2022-08-11T06:18:20.983Z,62.60
2022-08-11T06:21:11.163Z,62.50
2022-08-11T06:23:56.962Z,62.60
2022-08-11T06:27:09.065Z,62.80
2022-08-11T06:29:55.880Z,62.40
2022-08-11T06:32:55.439Z,62.50
2022-08-11T06:35:47.635Z,62.50
2022-08-11T06:38:39.135Z,62.90
2022-08-11T06:41:56.940Z,62.60
2022-08-11T06:44:46.586Z,62.60
2022-08-11T06:47:32.119Z,62.20
2022-08-11T06:50:41.937Z,62.00
2022-08-11T06:53:34.658Z,62.00
2022-08-11T06:56:46.457Z,61.80
2022-08-11T06:59:53.279Z,62.20
2022-08-11T07:03:03.283Z,62.10
2022-08-11T07:06:02.982Z,62.00
2022-08-11T07:09:47.231Z,62.00
2022-08-11T07:12:58.699Z,61.40
2022-08-11T07:16:12.167Z,62.30
2022-08-11T07:19:09.450Z,61.70
2022-08-11T07:22:15.787Z,60.90
2022-08-11T07:25:34.568Z,61.30
2022-08-11T07:28:44.955Z,60.80
2022-08-11T07:31:43.380Z,58.00
2022-08-11T07:34:35.579Z,57.20
2022-08-11T07:37:24.808Z,56.60
2022-08-11T07:40:11.436Z,56.00
2022-08-11T07:42:58.922Z,55.00
2022-08-11T07:46:04.996Z,55.20
2022-08-11T07:49:10.368Z,54.00
2022-08-11T07:52:15.147Z,54.10
2022-08-11T07:55:05.788Z,53.30
2022-08-11T07:58:17.012Z,51.90
2022-08-11T08:01:24.907Z,49.70
2022-08-11T08:04:32.106Z,50.20
2022-08-11T08:07:41.429Z,50.80
2022-08-11T08:10:45.798Z,50.40
2022-08-11T08:13:52.132Z,48.60
2022-08-11T08:16:57.583Z,48.80
2022-08-11T08:19:50.404Z,48.60
2022-08-11T08:22:38.964Z,48.60
2022-08-11T08:25:26.466Z,46.90
2022-08-11T08:28:15.886Z,46.60
2022-08-11T08:31:01.852Z,46.60
2022-08-11T08:33:47.568Z,46.80
2022-08-11T08:36:32.904Z,46.30
2022-08-11T08:39:22.419Z,46.00
2022-08-11T08:42:17.177Z,45.80
2022-08-11T08:45:06.350Z,45.20
2022-08-11T08:47:59.220Z,45.70
2022-08-11T08:51:08.463Z,45.40
2022-08-11T08:53:56.421Z,45.00
2022-08-11T08:56:44.935Z,44.30
2022-08-11T08:59:44.958Z,44.00
2022-08-11T09:02:34.477Z,43.30
2022-08-11T09:05:21.336Z,43.40
2022-08-11T09:08:07.807Z,43.30
2022-08-11T09:11:14.476Z,43.20
2022-08-11T09:14:03.138Z,43.30
2022-08-11T09:16:53.571Z,42.40
2022-08-11T09:19:39.009Z,42.90
2022-08-11T09:22:44.122Z,42.80
2022-08-11T09:25:50.802Z,41.70
2022-08-11T09:28:36.884Z,42.40
2022-08-11T09:31:22.943Z,41.90
2022-08-11T09:34:10.531Z,41.50
2022-08-11T09:37:54.728Z,42.10
2022-08-11T09:40:30.693Z,41.20
2022-08-11T09:43:37.879Z,40.60
2022-08-11T09:46:27.339Z,40.60
2022-08-11T09:49:13.020Z,39.90
2022-08-11T09:52:05.221Z,40.50
2022-08-11T09:54:52.163Z,41.40
2022-08-11T09:58:03.595Z,41.20
2022-08-11T10:00:51.071Z,41.70
2022-08-11T10:03:40.551Z,40.00
2022-08-11T10:06:54.273Z,39.70
2022-08-11T10:09:44.442Z,40.70
2022-08-11T10:12:36.046Z,40.70
2022-08-11T10:15:34.244Z,40.60
2022-08-11T10:18:42.648Z,40.00
2022-08-11T10:21:38.685Z,38.60
2022-08-11T10:24:42.334Z,38.00
2022-08-11T10:28:28.946Z,38.60
2022-08-11T10:30:52.305Z,39.10
2022-08-11T10:33:59.211Z,39.50
2022-08-11T10:36:48.191Z,38.30
2022-08-11T10:39:35.501Z,37.60
2022-08-11T10:42:57.514Z,38.40
2022-08-11T10:46:05.270Z,38.70
2022-08-11T10:48:50.908Z,38.00
2022-08-11T10:51:58.751Z,38.50
2022-08-11T10:55:03.685Z,38.90
2022-08-11T10:58:07.450Z,38.90
2022-08-11T11:00:56.837Z,38.90
2022-08-11T11:03:43.535Z,39.00
2022-08-11T11:06:57.077Z,38.30
2022-08-11T11:09:47.473Z,38.30
2022-08-11T11:13:00.440Z,37.90
2022-08-11T11:16:05.941Z,38.10
2022-08-11T11:19:00.722Z,37.90
2022-08-11T11:21:51.076Z,38.10
2022-08-11T11:25:18.764Z,38.70
2022-08-11T11:28:34.537Z,38.30
2022-08-11T11:31:47.154Z,37.50
2022-08-11T11:34:53.543Z,38.30
2022-08-11T11:37:40.700Z,37.20
2022-08-11T11:40:44.347Z,36.60
2022-08-11T11:43:30.178Z,36.40
2022-08-11T11:46:16.943Z,36.40
2022-08-11T11:49:15.863Z,36.60
2022-08-11T11:52:03.055Z,36.40
2022-08-11T11:54:50.666Z,37.00
2022-08-11T11:57:58.966Z,36.80
2022-08-11T12:01:05.019Z,35.70
2022-08-11T12:03:51.861Z,36.50
2022-08-11T12:06:37.950Z,35.70
2022-08-11T12:09:23.370Z,36.20
2022-08-11T12:12:28.805Z,35.10
2022-08-11T12:15:14.224Z,35.90
2022-08-11T12:18:00.307Z,35.60
2022-08-11T12:20:46.055Z,35.90
2022-08-11T12:23:52.760Z,35.30
2022-08-11T12:27:16.492Z,35.70
2022-08-11T12:30:11.016Z,35.90
2022-08-11T12:32:57.431Z,35.30
2022-08-11T12:36:00.351Z,35.10
2022-08-11T12:38:50.313Z,35.10
2022-08-11T12:41:57.150Z,35.40
2022-08-11T12:45:03.111Z,35.50
2022-08-11T12:48:57.714Z,35.60
2022-08-11T12:52:11.693Z,35.40
2022-08-11T12:55:02.810Z,34.40
2022-08-11T12:58:07.076Z,34.30
2022-08-11T13:01:12.811Z,34.60
2022-08-11T13:04:17.345Z,34.30
2022-08-11T13:07:03.247Z,33.80
2022-08-11T13:09:49.006Z,34.30
2022-08-11T13:12:50.145Z,34.20
2022-08-11T13:15:39.188Z,34.10
2022-08-11T13:18:24.967Z,33.90
2022-08-11T13:21:11.630Z,33.90
2022-08-11T13:24:05.922Z,33.70
2022-08-11T13:26:51.893Z,34.40
2022-08-11T13:29:38.493Z,33.90
2022-08-11T13:32:26.307Z,32.70
2022-08-11T13:35:16.977Z,33.10
2022-08-11T13:38:19.313Z,32.90
2022-08-11T13:41:28.659Z,33.60
2022-08-11T13:44:21.672Z,34.20
2022-08-11T13:47:13.941Z,33.30
2022-08-11T13:49:59.812Z,34.10
2022-08-11T13:52:49.000Z,34.20
2022-08-11T13:55:52.098Z,34.80
2022-08-11T13:58:40.652Z,34.20
2022-08-11T14:02:19.597Z,34.10
2022-08-11T14:05:00.143Z,34.40
2022-08-11T14:07:49.278Z,34.30
2022-08-11T14:10:37.911Z,34.00
2022-08-11T14:13:45.243Z,34.30
2022-08-11T14:16:42.879Z,34.50
2022-08-11T14:19:28.757Z,34.20
2022-08-11T14:22:16.194Z,34.80
2022-08-11T14:25:02.416Z,34.80
2022-08-11T14:28:32.642Z,34.90
2022-08-11T14:30:58.967Z,35.90
2022-08-11T14:33:59.368Z,34.90
2022-08-11T14:36:52.755Z,35.60
2022-08-11T14:39:47.852Z,34.40
2022-08-11T14:42:52.276Z,34.70
2022-08-11T14:45:59.110Z,34.90
2022-08-11T14:48:45.403Z,34.60
2022-08-11T14:51:31.604Z,35.20
2022-08-11T14:54:36.033Z,35.60
2022-08-11T14:57:54.852Z,35.50
2022-08-11T15:00:28.218Z,35.10
2022-08-11T15:03:15.331Z,35.70
2022-08-11T15:06:02.415Z,35.30
2022-08-11T15:08:57.180Z,34.80
2022-08-11T15:12:02.341Z,35.20
2022-08-11T15:15:08.055Z,35.40
2022-08-11T15:17:55.643Z,34.80
2022-08-11T15:21:00.217Z,35.60
2022-08-11T15:24:04.236Z,35.00
2022-08-11T15:27:08.982Z,35.60
2022-08-11T15:30:18.267Z,35.30
2022-08-11T15:33:38.856Z,35.40
2022-08-11T15:36:45.500Z,34.60
2022-08-11T15:40:05.222Z,35.00
2022-08-11T15:43:40.622Z,34.70
2022-08-11T15:46:39.477Z,35.30
2022-08-11T15:50:11.154Z,35.00
2022-08-11T15:52:45.866Z,35.00
2022-08-11T15:55:34.432Z,34.40
2022-08-11T15:58:39.747Z,34.80
2022-08-11T16:01:44.887Z,34.80
2022-08-11T16:04:31.759Z,34.90
2022-08-11T16:07:26.665Z,34.90
2022-08-11T16:10:19.503Z,34.40
2022-08-11T16:13:06.757Z,34.60
2022-08-11T16:16:13.734Z,34.30
2022-08-11T16:19:01.576Z,34.70
2022-08-11T16:21:50.525Z,34.10
2022-08-11T16:27:03.663Z,34.50
2022-08-11T16:27:49.386Z,35.20
2022-08-11T16:30:37.351Z,35.40
2022-08-11T16:33:50.520Z,35.20
2022-08-11T16:36:49.895Z,35.70
2022-08-11T16:39:36.099Z,35.20
2022-08-11T16:43:00.151Z,35.70
2022-08-11T16:46:04.452Z,35.60
2022-08-11T16:48:52.646Z,35.20
2022-08-11T16:51:38.090Z,35.10
2022-08-11T16:54:23.721Z,35.50
2022-08-11T16:57:35.760Z,35.20
2022-08-11T17:00:22.091Z,35.50
2022-08-11T17:03:26.962Z,35.20
2022-08-11T17:06:32.035Z,34.80
2022-08-11T17:09:40.156Z,35.80
2022-08-11T17:12:47.550Z,35.30
2022-08-11T17:15:51.878Z,35.90
2022-08-11T17:18:44.146Z,35.50
2022-08-11T17:22:05.718Z,36.40
2022-08-11T17:24:51.451Z,36.30
2022-08-11T17:27:38.896Z,36.60
2022-08-11T17:30:46.830Z,36.20
2022-08-11T17:33:52.531Z,35.80
2022-08-11T17:36:44.553Z,36.20
2022-08-11T17:39:31.816Z,36.20
2022-08-11T17:42:36.662Z,36.80
2022-08-11T17:45:42.048Z,36.70
2022-08-11T17:48:29.694Z,36.90
2022-08-11T17:51:38.834Z,36.60
2022-08-11T17:54:43.726Z,36.70
2022-08-11T17:57:48.594Z,36.60
2022-08-11T18:00:35.013Z,37.20
2022-08-11T18:03:32.852Z,37.00
2022-08-11T18:06:19.491Z,37.30
2022-08-11T18:09:38.907Z,37.20
2022-08-11T18:12:42.738Z,37.20
2022-08-11T18:15:55.562Z,37.10
2022-08-11T18:18:59.981Z,37.30
2022-08-11T18:22:14.699Z,37.80
2022-08-11T18:25:33.618Z,37.60
2022-08-11T18:28:44.603Z,37.40
2022-08-11T18:31:53.450Z,37.50
2022-08-11T18:35:06.380Z,37.70
2022-08-11T18:38:11.310Z,37.90
2022-08-11T18:41:17.249Z,38.20
2022-08-11T18:44:27.252Z,38.90
2022-08-11T18:47:33.269Z,39.70
2022-08-11T18:50:39.556Z,39.90
2022-08-11T18:53:47.408Z,40.30
2022-08-11T18:56:52.387Z,40.10
2022-08-11T18:59:58.433Z,39.50
2022-08-11T19:03:04.896Z,39.80
2022-08-11T19:06:39.047Z,40.00
2022-08-11T19:09:36.047Z,40.20
2022-08-11T19:12:42.426Z,40.00
2022-08-11T19:15:55.299Z,40.30
2022-08-11T19:19:01.436Z,40.10
2022-08-11T19:22:07.676Z,40.00
2022-08-11T19:25:13.618Z,40.20
2022-08-11T19:28:18.095Z,40.20
2022-08-11T19:31:22.494Z,40.50
2022-08-11T19:34:27.485Z,40.80
2022-08-11T19:37:32.277Z,40.90
2022-08-11T19:40:37.136Z,41.20
2022-08-11T19:43:43.505Z,41.40
2022-08-11T19:46:49.268Z,41.00
2022-08-11T19:49:55.582Z,41.20
2022-08-11T19:53:00.059Z,42.00
2022-08-11T19:56:07.140Z,42.10
2022-08-11T19:59:12.247Z,42.30
2022-08-11T20:02:16.143Z,42.40
2022-08-11T20:05:20.451Z,42.20
2022-08-11T20:08:25.811Z,42.20
2022-08-11T20:11:33.180Z,42.30
2022-08-11T20:14:39.127Z,42.70
2022-08-11T20:17:47.443Z,42.90
2022-08-11T20:20:52.266Z,43.60
2022-08-11T20:23:59.300Z,43.90
2022-08-11T20:27:04.806Z,44.40
2022-08-11T20:30:08.810Z,44.60
2022-08-11T20:33:12.704Z,44.60
2022-08-11T20:36:17.308Z,44.70
2022-08-11T20:39:22.704Z,44.60
2022-08-11T20:42:30.471Z,44.70
2022-08-11T20:45:36.627Z,44.90
2022-08-11T20:48:58.152Z,45.50
2022-08-11T20:52:06.284Z,45.10
2022-08-11T20:55:18.895Z,45.40
2022-08-11T20:58:48.058Z,44.80
2022-08-11T21:01:56.284Z,45.20
2022-08-11T21:05:00.807Z,45.30
2022-08-11T21:08:09.731Z,45.10
2022-08-11T21:11:27.962Z,45.30
2022-08-11T21:14:31.807Z,45.40
2022-08-11T21:18:00.074Z,46.30
2022-08-11T21:21:04.899Z,45.60
2022-08-11T21:24:13.317Z,45.60
2022-08-11T21:27:24.681Z,45.90
2022-08-11T21:30:29.271Z,46.10
2022-08-11T21:33:33.339Z,46.00
2022-08-11T21:36:41.192Z,45.90
2022-08-11T21:39:48.044Z,46.00
2022-08-11T21:42:55.849Z,46.10
2022-08-11T21:46:01.839Z,46.10
2022-08-11T21:49:06.828Z,46.30
2022-08-11T21:52:10.987Z,46.50
2022-08-11T21:55:16.368Z,46.60
2022-08-11T21:58:21.393Z,46.80
2022-08-11T22:01:27.160Z,46.90
2022-08-11T22:04:38.780Z,47.20
2022-08-11T22:07:43.312Z,47.30
2022-08-11T22:10:47.246Z,47.10
2022-08-11T22:14:01.191Z,47.60
2022-08-11T22:17:11.765Z,47.80
2022-08-11T22:20:17.057Z,48.00
2022-08-11T22:23:21.561Z,47.90
2022-08-11T22:26:26.509Z,48.20
2022-08-11T22:29:49.910Z,48.50
2022-08-11T22:32:55.494Z,48.40
2022-08-11T22:36:01.926Z,48.70
2022-08-11T22:39:06.838Z,48.90
2022-08-11T22:42:10.910Z,49.00
2022-08-11T22:45:14.818Z,49.00
2022-08-11T22:48:20.287Z,49.10
2022-08-11T22:51:25.336Z,49.30
2022-08-11T22:54:29.899Z,48.90
2022-08-11T22:57:34.198Z,49.30
2022-08-11T23:00:38.060Z,49.20
2022-08-11T23:03:43.911Z,49.10
2022-08-11T23:06:48.449Z,49.00
2022-08-11T23:09:52.795Z,49.40
2022-08-11T23:12:57.302Z,49.30
2022-08-11T23:16:01.642Z,49.50
2022-08-11T23:19:06.784Z,49.10
2022-08-11T23:22:12.486Z,49.40
2022-08-11T23:25:17.549Z,49.80
2022-08-11T23:28:23.797Z,50.10
2022-08-11T23:31:29.685Z,49.90
2022-08-11T23:35:37.309Z,50.40
2022-08-11T23:38:22.182Z,49.80
2022-08-11T23:41:25.982Z,49.90
2022-08-11T23:44:30.164Z,49.70
2022-08-11T23:47:50.547Z,50.00
2022-08-11T23:50:55.340Z,49.80
2022-08-11T23:54:00.999Z,49.90
2022-08-11T23:57:12.719Z,50.10
